createdAt,value
2023-05-08T00:01:19.247Z,16.14
2023-05-08T00:03:49.162Z,16.41
2023-05-08T00:06:19.067Z,16.79
2023-05-08T00:08:48.941Z,16.79
2023-05-08T00:11:18.866Z,16.43
2023-05-08T00:13:51.346Z,17.44
2023-05-08T00:16:21.166Z,17.29
2023-05-08T00:18:50.923Z,17.54
2023-05-08T00:21:20.817Z,17.27
2023-05-08T00:23:50.492Z,17.83
2023-05-08T00:26:20.991Z,16.91
2023-05-08T00:28:53.283Z,17.43
2023-05-08T00:31:24.258Z,17.89
2023-05-08T00:33:54.227Z,17.55
2023-05-08T00:36:23.932Z,18.23
2023-05-08T00:38:53.650Z,17.34
2023-05-08T00:41:23.359Z,18.06
2023-05-08T00:43:55.602Z,18.00
2023-05-08T00:46:25.498Z,17.25
2023-05-08T00:48:55.252Z,17.96
2023-05-08T00:51:25.734Z,17.32
2023-05-08T00:53:55.565Z,17.95
2023-05-08T00:56:27.084Z,17.09
2023-05-08T00:58:59.617Z,18.07
2023-05-08T01:01:29.341Z,17.79
2023-05-08T01:03:59.365Z,17.75
2023-05-08T01:06:29.134Z,18.04
2023-05-08T01:08:58.839Z,17.48
2023-05-08T01:11:32.848Z,17.97
2023-05-08T01:14:11.047Z,18.25
2023-05-08T01:16:44.788Z,18.68
2023-05-08T01:19:30.921Z,18.20
2023-05-08T01:22:08.537Z,17.81
2023-05-08T01:24:56.020Z,17.93
2023-05-08T01:27:41.183Z,18.00
2023-05-08T01:30:42.354Z,17.64
2023-05-08T01:33:21.476Z,18.16
2023-05-08T01:35:53.385Z,17.77
2023-05-08T01:38:29.806Z,18.73
2023-05-08T01:41:05.140Z,18.87
2023-05-08T01:43:38.974Z,19.48
2023-05-08T01:46:12.890Z,19.61
2023-05-08T01:48:49.542Z,20.27
2023-05-08T01:51:21.950Z,19.85
2023-05-08T01:53:54.147Z,20.46
2023-05-08T01:56:27.271Z,20.34
2023-05-08T01:58:59.663Z,20.68
2023-05-08T02:01:31.985Z,20.03
2023-05-08T02:04:06.617Z,21.11
2023-05-08T02:06:37.724Z,20.50
2023-05-08T02:09:10.727Z,20.19
2023-05-08T02:11:42.175Z,19.92
2023-05-08T02:14:12.608Z,20.90
2023-05-08T02:16:44.106Z,20.08
2023-05-08T02:19:17.816Z,20.88
2023-05-08T02:21:49.055Z,21.42
2023-05-08T02:24:20.300Z,20.88
2023-05-08T02:26:51.186Z,20.77
2023-05-08T02:29:22.588Z,21.13
2023-05-08T02:31:54.868Z,21.36
2023-05-08T02:34:29.379Z,20.97
2023-05-08T02:37:00.788Z,20.86
2023-05-08T02:39:33.439Z,20.97
2023-05-08T02:42:04.118Z,21.58
2023-05-08T02:44:34.230Z,22.03
2023-05-08T02:47:09.704Z,21.40
2023-05-08T02:49:49.453Z,21.60
2023-05-08T02:52:21.961Z,22.59
2023-05-08T02:54:58.826Z,22.19
2023-05-08T02:57:34.869Z,22.96
2023-05-08T03:00:08.378Z,22.83
2023-05-08T03:02:42.353Z,24.07
2023-05-08T03:05:19.238Z,23.02
2023-05-08T03:07:52.709Z,24.59
2023-05-08T03:10:24.982Z,23.56
2023-05-08T03:12:57.878Z,23.70
2023-05-08T03:15:29.561Z,23.84
2023-05-08T03:18:03.904Z,24.44
2023-05-08T03:20:40.255Z,24.68
2023-05-08T03:23:12.540Z,23.78
2023-05-08T03:25:44.978Z,25.50
2023-05-08T03:28:16.002Z,24.77
2023-05-08T03:30:46.497Z,25.71
2023-05-08T03:33:19.915Z,24.96
2023-05-08T03:35:53.759Z,25.18
2023-05-08T03:38:23.873Z,23.76
2023-05-08T03:40:53.877Z,25.18
2023-05-08T03:43:24.974Z,24.56
2023-05-08T03:45:55.483Z,24.35
2023-05-08T03:48:25.808Z,24.40
2023-05-08T03:51:01.547Z,24.47
2023-05-08T03:53:31.912Z,25.35
2023-05-08T03:56:03.180Z,25.01
2023-05-08T03:58:35.912Z,25.14
2023-05-08T04:01:10.678Z,25.52
2023-05-08T04:03:57.395Z,24.93
2023-05-08T04:06:42.052Z,25.01
2023-05-08T04:09:24.907Z,25.47
2023-05-08T04:12:02.358Z,25.18
2023-05-08T04:14:36.014Z,24.82
2023-05-08T04:17:10.191Z,25.07
2023-05-08T04:19:46.192Z,24.77
2023-05-08T04:22:24.720Z,25.38
2023-05-08T04:24:57.113Z,25.30
2023-05-08T04:27:28.274Z,25.33
2023-05-08T04:29:59.615Z,25.19
2023-05-08T04:32:32.865Z,26.16
2023-05-08T04:35:03.845Z,25.54
2023-05-08T04:37:36.260Z,25.21
2023-05-08T04:40:07.451Z,25.51
2023-05-08T04:42:39.648Z,26.28
2023-05-08T04:45:10.310Z,25.66
2023-05-08T04:47:40.438Z,25.67
2023-05-08T04:50:10.656Z,25.55
2023-05-08T04:52:43.282Z,25.45
2023-05-08T04:55:14.467Z,25.96
2023-05-08T04:57:44.731Z,26.16
2023-05-08T05:00:15.744Z,25.19
2023-05-08T05:02:47.947Z,27.02
2023-05-08T05:05:17.824Z,26.90
2023-05-08T05:07:50.179Z,25.31
2023-05-08T05:10:22.304Z,25.36
2023-05-08T05:12:52.090Z,25.86
2023-05-08T05:15:22.444Z,25.64
2023-05-08T05:17:52.345Z,24.85
2023-05-08T05:20:22.390Z,25.61
2023-05-08T05:22:54.657Z,25.64
2023-05-08T05:25:24.461Z,24.76
2023-05-08T05:27:54.252Z,26.55
2023-05-08T05:30:24.299Z,26.29
2023-05-08T05:32:54.141Z,26.38
2023-05-08T05:35:25.579Z,26.12
2023-05-08T05:37:58.958Z,25.87
2023-05-08T05:40:28.876Z,25.93
2023-05-08T05:42:58.614Z,25.87
2023-05-08T05:45:29.344Z,26.72
2023-05-08T05:48:00.617Z,26.38
2023-05-08T05:50:30.802Z,26.57
2023-05-08T05:53:03.290Z,26.65
2023-05-08T05:55:33.286Z,27.64
2023-05-08T05:58:03.569Z,26.99
2023-05-08T06:00:33.619Z,27.64
2023-05-08T06:03:03.748Z,27.18
2023-05-08T06:05:33.980Z,28.28
2023-05-08T06:08:06.464Z,27.36
2023-05-08T06:10:36.599Z,29.14
2023-05-08T06:13:06.698Z,29.41
2023-05-08T06:15:37.735Z,29.72
2023-05-08T06:18:07.676Z,28.67
2023-05-08T06:20:37.568Z,30.14
2023-05-08T06:23:09.900Z,30.05
2023-05-08T06:25:39.748Z,29.18
2023-05-08T06:28:09.449Z,28.76
2023-05-08T06:30:39.365Z,30.76
2023-05-08T06:33:09.176Z,30.67
2023-05-08T06:35:38.889Z,29.75
2023-05-08T06:38:11.211Z,30.91
2023-05-08T06:40:44.104Z,31.33
2023-05-08T06:43:14.050Z,33.17
2023-05-08T06:45:46.194Z,31.54
2023-05-08T06:48:16.094Z,31.17
2023-05-08T06:50:46.832Z,32.11
2023-05-08T06:53:22.220Z,32.42
2023-05-08T06:55:52.021Z,33.50
2023-05-08T06:58:21.769Z,33.42
2023-05-08T07:00:51.636Z,33.88
2023-05-08T07:03:21.561Z,34.62
2023-05-08T07:05:51.551Z,34.40
2023-05-08T07:08:23.903Z,34.77
2023-05-08T07:10:53.860Z,35.09
2023-05-08T07:13:23.780Z,35.49
2023-05-08T07:15:53.901Z,35.15
2023-05-08T07:18:23.633Z,35.84
2023-05-08T07:20:53.411Z,35.83
2023-05-08T07:23:27.011Z,35.88
2023-05-08T07:25:58.031Z,35.31
2023-05-08T07:28:27.845Z,36.13
2023-05-08T07:30:57.882Z,37.36
2023-05-08T07:33:27.542Z,36.55
2023-05-08T07:35:57.273Z,36.34
2023-05-08T07:38:29.642Z,37.86
2023-05-08T07:41:01.745Z,38.42
2023-05-08T07:43:31.554Z,37.49
2023-05-08T07:46:01.826Z,38.06
2023-05-08T07:48:31.585Z,38.93
2023-05-08T07:51:01.362Z,38.61
2023-05-08T07:53:33.666Z,38.25
2023-05-08T07:56:03.580Z,39.09
2023-05-08T07:58:33.482Z,41.11
2023-05-08T08:01:03.613Z,40.11
2023-05-08T08:03:33.351Z,41.59
2023-05-08T08:06:03.188Z,42.93
2023-05-08T08:08:35.567Z,42.44
2023-05-08T08:11:05.251Z,44.04
2023-05-08T08:13:35.517Z,44.80
2023-05-08T08:16:06.094Z,46.70
2023-05-08T08:18:37.450Z,47.19
2023-05-08T08:21:10.593Z,46.94
2023-05-08T08:23:43.229Z,45.70
2023-05-08T08:26:12.902Z,44.98
2023-05-08T08:28:45.119Z,44.26
2023-05-08T08:31:16.599Z,44.22
2023-05-08T08:33:46.818Z,41.29
2023-05-08T08:36:19.104Z,41.40
2023-05-08T08:38:51.475Z,42.14
2023-05-08T08:41:21.566Z,46.10
2023-05-08T08:43:51.430Z,44.44
2023-05-08T08:46:22.849Z,45.60
2023-05-08T08:48:53.956Z,44.66
2023-05-08T08:51:28.817Z,44.20
2023-05-08T08:54:06.971Z,44.08
2023-05-08T08:56:37.157Z,44.00
2023-05-08T08:59:08.742Z,44.58
2023-05-08T09:01:42.086Z,44.42
2023-05-08T09:04:11.810Z,44.72
2023-05-08T09:06:41.764Z,43.45
2023-05-08T09:09:15.057Z,43.47
2023-05-08T09:11:46.613Z,44.04
2023-05-08T09:14:16.748Z,44.50
2023-05-08T09:16:46.665Z,43.02
2023-05-08T09:19:16.828Z,43.62
2023-05-08T09:21:48.270Z,43.47
2023-05-08T09:24:20.864Z,42.30
2023-05-08T09:26:50.737Z,42.15
2023-05-08T09:29:22.227Z,42.86
2023-05-08T09:31:52.975Z,43.37
2023-05-08T09:34:28.473Z,43.19
2023-05-08T09:36:58.765Z,42.41
2023-05-08T09:39:31.010Z,41.68
2023-05-08T09:42:01.584Z,42.94
2023-05-08T09:44:31.546Z,43.31
2023-05-08T09:47:14.081Z,42.55
2023-05-08T09:49:59.503Z,41.29
2023-05-08T09:52:29.773Z,41.43
2023-05-08T09:55:03.165Z,41.81
2023-05-08T09:57:34.265Z,41.90
2023-05-08T10:00:06.288Z,41.94
2023-05-08T10:02:37.028Z,43.17
2023-05-08T10:05:08.185Z,42.81
2023-05-08T10:07:38.927Z,42.17
2023-05-08T10:10:11.880Z,42.47
2023-05-08T10:12:43.126Z,42.86
2023-05-08T10:15:13.148Z,41.77
2023-05-08T10:17:47.469Z,41.78
2023-05-08T10:20:21.585Z,43.13
2023-05-08T10:22:51.981Z,43.76
2023-05-08T10:25:25.343Z,44.34
2023-05-08T10:27:58.322Z,46.09
2023-05-08T10:30:29.404Z,47.12
2023-05-08T10:33:01.278Z,46.32
2023-05-08T10:35:31.755Z,44.96
2023-05-08T10:38:02.213Z,42.24
2023-05-08T10:40:34.488Z,39.84
2023-05-08T10:43:07.201Z,40.14
2023-05-08T10:45:37.762Z,38.98
2023-05-08T10:48:11.856Z,37.57
2023-05-08T10:50:47.715Z,34.58
2023-05-08T10:53:20.793Z,35.08
2023-05-08T10:55:54.430Z,35.83
2023-05-08T10:58:33.754Z,34.41
2023-05-08T11:01:17.665Z,34.93
2023-05-08T11:03:53.115Z,34.80
2023-05-08T11:06:45.781Z,33.28
2023-05-08T11:09:23.388Z,33.52
2023-05-08T11:12:07.277Z,37.54
2023-05-08T11:14:37.570Z,39.47
2023-05-08T11:17:11.058Z,40.37
2023-05-08T11:19:41.129Z,41.63
2023-05-08T11:22:18.309Z,41.67
2023-05-08T11:24:52.427Z,42.69
2023-05-08T11:27:33.956Z,43.61
2023-05-08T11:30:18.618Z,43.04
2023-05-08T11:33:02.794Z,43.73
2023-05-08T11:35:46.323Z,43.11
2023-05-08T11:38:23.343Z,44.51
2023-05-08T11:40:58.377Z,44.96
2023-05-08T11:43:36.303Z,44.51
2023-05-08T11:46:08.616Z,45.05
2023-05-08T11:48:39.010Z,45.28
2023-05-08T11:51:08.934Z,44.66
2023-05-08T11:53:39.275Z,44.09
2023-05-08T11:56:09.375Z,44.87
2023-05-08T11:58:41.706Z,43.60
2023-05-08T12:01:11.368Z,40.55
2023-05-08T12:03:41.182Z,40.09
2023-05-08T12:06:11.453Z,39.54
2023-05-08T12:08:42.051Z,39.28
2023-05-08T12:11:11.992Z,39.81
2023-05-08T12:13:44.307Z,41.54
2023-05-08T12:16:14.316Z,39.90
2023-05-08T12:18:45.368Z,38.05
2023-05-08T12:21:15.336Z,38.35
2023-05-08T12:23:45.424Z,37.95
2023-05-08T12:26:15.465Z,37.98
2023-05-08T12:28:50.077Z,38.28
2023-05-08T12:31:19.997Z,38.49
2023-05-08T12:33:50.389Z,37.20
2023-05-08T12:36:20.124Z,36.41
2023-05-08T12:38:49.776Z,36.56
2023-05-08T12:41:26.472Z,37.74
2023-05-08T12:43:58.695Z,38.61
2023-05-08T12:46:29.703Z,37.86
2023-05-08T12:49:04.775Z,37.84
2023-05-08T12:51:34.510Z,36.81
2023-05-08T12:54:04.162Z,36.42
2023-05-08T12:56:33.857Z,36.06
2023-05-08T12:59:06.137Z,37.07
2023-05-08T13:01:35.937Z,36.95
2023-05-08T13:04:09.817Z,37.24
2023-05-08T13:06:40.049Z,37.20
2023-05-08T13:09:09.684Z,36.42
2023-05-08T13:11:39.713Z,37.12
2023-05-08T13:14:11.931Z,37.09
2023-05-08T13:16:45.181Z,35.64
2023-05-08T13:19:15.756Z,36.01
2023-05-08T13:21:47.479Z,35.98
2023-05-08T13:24:17.357Z,35.53
2023-05-08T13:26:47.244Z,35.10
2023-05-08T13:29:22.269Z,33.55
2023-05-08T13:31:52.060Z,32.62
2023-05-08T13:34:21.733Z,33.57
2023-05-08T13:36:52.546Z,33.24
2023-05-08T13:39:22.259Z,34.22
2023-05-08T13:41:51.915Z,33.40
2023-05-08T13:44:24.186Z,34.84
2023-05-08T13:46:53.922Z,32.72
2023-05-08T13:49:24.470Z,30.78
2023-05-08T13:51:57.147Z,31.59
2023-05-08T13:54:27.180Z,30.89
2023-05-08T13:56:56.901Z,32.10
2023-05-08T13:59:31.444Z,32.29
2023-05-08T14:02:01.196Z,31.35
2023-05-08T14:04:30.985Z,30.60
2023-05-08T14:07:00.994Z,31.42
2023-05-08T14:09:30.689Z,30.16
2023-05-08T14:12:00.455Z,29.27
2023-05-08T14:14:34.537Z,30.33
2023-05-08T14:17:04.656Z,30.29
2023-05-08T14:19:34.779Z,29.37
2023-05-08T14:22:04.886Z,29.07
2023-05-08T14:24:34.530Z,30.70
2023-05-08T14:27:06.218Z,30.78
2023-05-08T14:29:38.900Z,31.48
2023-05-08T14:32:09.503Z,31.12
2023-05-08T14:34:39.237Z,30.25
2023-05-08T14:37:09.485Z,30.87
2023-05-08T14:39:39.211Z,31.04
2023-05-08T14:44:44.252Z,30.90
2023-05-08T14:47:14.080Z,30.63
2023-05-08T14:49:43.858Z,31.50
2023-05-08T14:52:13.545Z,31.91
2023-05-08T14:54:43.484Z,31.18
2023-05-08T14:57:13.306Z,31.40
2023-05-08T14:59:54.107Z,31.12
2023-05-08T15:02:24.933Z,31.43
2023-05-08T15:04:54.684Z,31.68
2023-05-08T15:07:24.333Z,32.34
2023-05-08T15:09:53.999Z,32.52
2023-05-08T15:12:23.666Z,32.90
2023-05-08T15:14:56.489Z,33.01
2023-05-08T15:17:26.244Z,33.37
2023-05-08T15:19:55.915Z,34.16
2023-05-08T15:22:26.491Z,33.02
2023-05-08T15:25:02.329Z,30.68
2023-05-08T15:27:32.266Z,28.14
2023-05-08T15:30:04.687Z,27.03
2023-05-08T15:32:35.117Z,28.93
2023-05-08T15:35:04.826Z,29.17
2023-05-08T15:37:34.535Z,30.13
2023-05-08T15:40:04.312Z,31.06
2023-05-08T15:42:33.994Z,30.38
2023-05-08T15:45:06.524Z,30.66
2023-05-08T15:47:36.244Z,30.93
2023-05-08T15:50:05.983Z,32.06
2023-05-08T15:52:35.749Z,31.43
2023-05-08T15:55:05.555Z,33.74
2023-05-08T15:57:35.206Z,32.62
2023-05-08T16:00:07.950Z,33.69
2023-05-08T16:02:37.765Z,33.21
2023-05-08T16:05:07.622Z,34.43
2023-05-08T16:07:37.367Z,34.14
2023-05-08T16:10:07.458Z,34.80
2023-05-08T16:12:37.346Z,34.79
2023-05-08T16:15:10.337Z,33.98
2023-05-08T16:17:40.194Z,33.71
2023-05-08T16:20:12.563Z,34.05
2023-05-08T16:22:42.494Z,34.99
2023-05-08T16:25:13.266Z,33.80
2023-05-08T16:27:43.177Z,34.78
2023-05-08T16:30:16.090Z,33.68
2023-05-08T16:32:45.942Z,33.44
2023-05-08T16:35:15.850Z,34.75
2023-05-08T16:37:46.082Z,34.67
2023-05-08T16:40:16.009Z,33.34
2023-05-08T16:42:45.729Z,32.24
2023-05-08T16:45:18.102Z,32.94
2023-05-08T16:47:47.838Z,33.25
2023-05-08T16:50:17.469Z,33.08
2023-05-08T16:52:47.110Z,32.87
2023-05-08T16:55:16.895Z,33.42
2023-05-08T16:57:46.628Z,33.60
2023-05-08T17:00:19.684Z,33.79
2023-05-08T17:02:49.455Z,34.29
2023-05-08T17:05:19.328Z,33.77
2023-05-08T17:07:51.881Z,33.50
2023-05-08T17:10:21.662Z,33.01
2023-05-08T17:12:54.147Z,32.69
2023-05-08T17:15:26.663Z,33.74
2023-05-08T17:17:56.612Z,33.64
2023-05-08T17:20:26.345Z,33.56
2023-05-08T17:22:56.039Z,34.34
2023-05-08T17:25:25.831Z,34.34
2023-05-08T17:27:56.140Z,33.91
2023-05-08T17:30:29.026Z,33.55
2023-05-08T17:32:58.749Z,35.23
2023-05-08T17:35:28.591Z,34.44
2023-05-08T17:37:58.405Z,35.12
2023-05-08T17:40:29.045Z,36.20
2023-05-08T17:43:00.006Z,35.89
2023-05-08T17:45:32.491Z,37.43
2023-05-08T17:48:02.396Z,36.88
2023-05-08T17:50:32.318Z,36.13
2023-05-08T17:53:02.072Z,38.51
2023-05-08T17:55:31.949Z,37.43
2023-05-08T17:58:01.764Z,38.47
2023-05-08T18:00:34.432Z,36.82
2023-05-08T18:03:04.477Z,36.68
2023-05-08T18:05:34.215Z,37.08
2023-05-08T18:08:03.969Z,37.19
2023-05-08T18:10:34.123Z,36.25
2023-05-08T18:13:04.129Z,35.62
2023-05-08T18:15:39.211Z,36.09
2023-05-08T18:18:08.958Z,36.51
2023-05-08T18:20:38.782Z,36.70
2023-05-08T18:23:08.500Z,36.35
2023-05-08T18:25:38.323Z,38.38
2023-05-08T18:28:08.146Z,37.06
2023-05-08T18:30:40.439Z,38.56
2023-05-08T18:33:10.185Z,38.01
2023-05-08T18:35:39.952Z,38.41
2023-05-08T18:38:09.645Z,37.64
2023-05-08T18:40:39.301Z,37.43
2023-05-08T18:43:09.032Z,38.40
2023-05-08T18:45:43.307Z,37.40
2023-05-08T18:48:13.347Z,39.17
2023-05-08T18:50:43.014Z,40.05
2023-05-08T18:53:14.751Z,39.72
2023-05-08T18:55:44.667Z,40.12
2023-05-08T18:58:16.827Z,39.35
2023-05-08T19:00:49.164Z,39.63
2023-05-08T19:03:19.216Z,39.93
2023-05-08T19:05:48.976Z,39.98
2023-05-08T19:08:18.786Z,40.42
2023-05-08T19:10:48.564Z,40.72
2023-05-08T19:13:18.388Z,40.86
2023-05-08T19:15:50.983Z,40.11
2023-05-08T19:18:20.739Z,40.15
2023-05-08T19:20:50.496Z,41.14
2023-05-08T19:23:20.278Z,41.52
2023-05-08T19:25:50.076Z,42.12
2023-05-08T19:28:19.722Z,42.61
2023-05-08T19:30:52.064Z,42.11
2023-05-08T19:33:22.383Z,41.85
2023-05-08T19:35:52.176Z,41.76
2023-05-08T19:38:21.928Z,40.93
2023-05-08T19:40:56.395Z,44.73
2023-05-08T19:43:27.228Z,41.66
2023-05-08T19:45:59.824Z,40.95
2023-05-08T19:48:29.618Z,40.43
2023-05-08T19:50:59.455Z,40.37
2023-05-08T19:53:29.185Z,40.48
2023-05-08T19:55:58.873Z,41.02
2023-05-08T19:58:28.542Z,40.33
2023-05-08T20:01:00.796Z,40.19
2023-05-08T20:03:30.778Z,40.42
2023-05-08T20:06:00.528Z,40.76
2023-05-08T20:08:30.259Z,41.50
2023-05-08T20:11:02.566Z,41.24
2023-05-08T20:13:32.264Z,40.47
2023-05-08T20:16:04.549Z,39.51
2023-05-08T20:18:34.293Z,40.33
2023-05-08T20:21:03.967Z,39.76
2023-05-08T20:23:33.766Z,39.99
2023-05-08T20:26:05.394Z,39.88
2023-05-08T20:28:35.105Z,42.10
2023-05-08T20:31:07.549Z,41.81
2023-05-08T20:33:37.213Z,39.70
2023-05-08T20:36:07.063Z,41.85
2023-05-08T20:38:36.976Z,41.98
2023-05-08T20:41:06.770Z,42.52
2023-05-08T20:43:36.450Z,43.12
2023-05-08T20:46:08.757Z,44.18
2023-05-08T20:48:38.621Z,43.82
2023-05-08T20:51:08.330Z,44.86
2023-05-08T20:53:38.131Z,45.67
2023-05-08T20:56:08.844Z,45.61
2023-05-08T20:58:38.582Z,46.67
2023-05-08T21:01:11.440Z,46.02
2023-05-08T21:03:41.498Z,45.87
2023-05-08T21:06:11.156Z,47.43
2023-05-08T21:08:40.881Z,46.58
2023-05-08T21:11:11.522Z,45.87
2023-05-08T21:13:41.196Z,45.87
2023-05-08T21:16:13.788Z,46.18
2023-05-08T21:18:43.491Z,46.57
2023-05-08T21:21:20.067Z,47.16
2023-05-08T21:23:49.725Z,46.91
2023-05-08T21:26:20.183Z,46.62
2023-05-08T21:28:49.844Z,47.21
2023-05-08T21:31:22.611Z,47.05
2023-05-08T21:33:52.368Z,47.41
2023-05-08T21:36:22.009Z,47.57
2023-05-08T21:38:52.633Z,46.95
2023-05-08T21:41:22.383Z,49.02
2023-05-08T21:43:52.080Z,47.77
2023-05-08T21:46:24.315Z,45.87
2023-05-08T21:48:53.978Z,43.88
2023-05-08T21:51:23.616Z,43.43
2023-05-08T21:53:53.352Z,40.72
2023-05-08T21:56:23.178Z,40.57
2023-05-08T21:58:52.986Z,40.41
2023-05-08T22:01:25.233Z,39.46
2023-05-08T22:03:55.031Z,38.18
2023-05-08T22:06:24.898Z,37.85
2023-05-08T22:08:54.617Z,37.87
2023-05-08T22:11:24.701Z,36.21
2023-05-08T22:13:54.547Z,35.79
2023-05-08T22:16:26.887Z,36.30
2023-05-08T22:18:56.559Z,34.82
2023-05-08T22:21:29.620Z,35.01
2023-05-08T22:23:59.700Z,34.82
2023-05-08T22:26:29.398Z,35.38
2023-05-08T22:28:59.732Z,35.55
2023-05-08T22:31:32.092Z,35.50
2023-05-08T22:34:01.886Z,35.09
2023-05-08T22:36:32.761Z,35.41
2023-05-08T22:39:03.893Z,35.48
2023-05-08T22:41:33.612Z,34.53
2023-05-08T22:44:03.632Z,35.05
2023-05-08T22:46:36.450Z,34.82
2023-05-08T22:49:06.248Z,35.48
2023-05-08T22:51:36.219Z,35.29
2023-05-08T22:54:05.906Z,35.48
2023-05-08T22:56:35.918Z,34.82
2023-05-08T22:59:05.619Z,35.54
2023-05-08T23:01:37.966Z,35.72
2023-05-08T23:04:07.826Z,36.70
2023-05-08T23:06:37.640Z,36.24
2023-05-08T23:09:07.311Z,35.87
2023-05-08T23:11:37.174Z,35.98
2023-05-08T23:14:06.912Z,36.27
2023-05-08T23:16:39.204Z,35.39
2023-05-08T23:19:10.181Z,36.23
2023-05-08T23:21:39.835Z,35.96
2023-05-08T23:24:09.887Z,35.54
2023-05-08T23:26:42.041Z,35.38
2023-05-08T23:29:12.126Z,37.55
2023-05-08T23:31:44.614Z,35.04
2023-05-08T23:34:14.259Z,36.24
2023-05-08T23:36:43.867Z,35.56
2023-05-08T23:39:13.577Z,36.80
2023-05-08T23:41:43.221Z,36.09
2023-05-08T23:44:12.879Z,35.76
2023-05-08T23:46:45.235Z,35.57
2023-05-08T23:49:15.183Z,36.15
2023-05-08T23:51:44.914Z,36.35
2023-05-08T23:54:14.559Z,35.84
2023-05-08T23:56:44.235Z,36.09
2023-05-08T23:59:13.940Z,36.18
